Time;durP1;ratioP1;P1;durP2;ratioP2;P2;SDS_P1;SDS_P2;PMS_P1;PMS_P2;Temp;Humidity;BMP_temperature;BMP_pressure;BME280_temperature;BME280_humidity;BME280_pressure;Samples;Min_cycle;Max_cycle;Signal;HPM_P1;HPM_P2
2022/09/09 00:02:23;;;;;;;5.20;2.90;;;;;;;;;;110246;1251;33234;-34
2022/09/09 00:05:02;;;;;;;5.70;3.00;;;;;;;;;;110232;1250;32511;-34
2022/09/09 00:07:44;;;;;;;5.60;2.90;;;;;;;;;;110160;1251;33262;-34
2022/09/09 00:10:24;;;;;;;5.50;3.40;;;;;;;;;;110165;1259;32375;-34
2022/09/09 00:13:02;;;;;;;7.60;3.20;;;;;;;;;;110193;1251;33117;-34
2022/09/09 00:15:42;;;;;;;5.20;3.00;;;;;;;;;;110187;1259;32333;-34
2022/09/09 00:18:24;;;;;;;5.90;3.50;;;;;;;;;;110182;1251;32808;-34
2022/09/09 00:21:04;;;;;;;5.80;3.00;;;;;;;;;;110193;1252;34056;-34
2022/09/09 00:23:41;;;;;;;5.60;3.10;;;;;;;;;;110157;1251;32768;-34
2022/09/09 00:26:21;;;;;;;5.10;3.00;;;;;;;;;;110203;1253;32924;-34
2022/09/09 00:28:57;;;;;;;5.40;3.30;;;;;;;;;;110203;1251;32789;-34
2022/09/09 00:31:30;;;;;;;5.30;3.10;;;;;;;;;;110261;1252;31941;-34
2022/09/09 00:34:04;;;;;;;;;;;;;;;;;;110240;1253;32532;-34
2022/09/09 00:36:36;;;;;;;5.30;3.10;;;;;;;;;;110226;1251;32137;-34
2022/09/09 00:39:11;;;;;;;6.40;3.50;;;;;;;;;;110147;1251;32854;-34
2022/09/09 00:41:55;;;;;;;5.50;2.90;;;;;;;;;;110182;1259;34340;-34
2022/09/09 00:44:31;;;;;;;6.20;4.10;;;;;;;;;;110190;1251;31872;-34
2022/09/09 00:47:18;;;;;;;6.70;3.20;;;;;;;;;;110189;1259;33115;-33
2022/09/09 00:49:58;;;;;;;5.80;3.70;;;;;;;;;;110180;1251;39743;-33
2022/09/09 00:52:39;;;;;;;5.40;3.60;;;;;;;;;;110245;1251;32764;-34
2022/09/09 00:55:16;;;;;;;5.90;3.60;;;;;;;;;;110220;1258;32816;-34
2022/09/09 00:57:49;;;;;;;5.90;3.40;;;;;;;;;;110215;1250;33016;-34
2022/09/09 01:00:26;;;;;;;5.90;3.70;;;;;;;;;;110163;1259;38964;-35
2022/09/09 01:03:07;;;;;;;7.90;3.20;;;;;;;;;;110217;1251;32599;-35
2022/09/09 01:05:46;;;;;;;5.60;3.20;;;;;;;;;;110177;1251;32441;-34
2022/09/09 01:08:38;;;;;;;6.00;3.70;;;;;;;;;;110096;1250;32533;-34
2022/09/09 01:11:16;;;;;;;7.40;3.60;;;;;;;;;;110231;1250;32569;-35
2022/09/09 01:13:50;;;;;;;5.50;3.30;;;;;;;;;;110229;1259;33036;-35
2022/09/09 01:16:21;;;;;;;5.70;3.60;;;;;;;;;;110243;1251;32336;-34
2022/09/09 01:18:55;;;;;;;6.80;3.80;;;;;;;;;;110199;1250;33119;-35
2022/09/09 01:21:37;;;;;;;6.40;3.60;;;;;;;;;;110173;1259;32399;-35
2022/09/09 01:24:20;;;;;;;7.90;3.70;;;;;;;;;;110165;1253;32447;-34
2022/09/09 01:26:52;;;;;;;5.90;3.60;;;;;;;;;;110195;1252;32954;-35
2022/09/09 01:29:24;;;;;;;6.10;4.00;;;;;;;;;;110175;1252;33718;-35
2022/09/09 01:31:59;;;;;;;6.00;3.70;;;;;;;;;;110242;1251;32499;-34
2022/09/09 01:34:34;;;;;;;5.80;3.90;;;;;;;;;;110244;1259;33231;-34
2022/09/09 01:37:07;;;;;;;7.30;3.60;;;;;;;;;;110233;1251;32741;-34
2022/09/09 01:39:39;;;;;;;5.70;3.50;;;;;;;;;;110192;1251;32551;-34
2022/09/09 01:42:14;;;;;;;6.00;3.80;;;;;;;;;;110200;1251;32450;-35
2022/09/09 01:44:45;;;;;;;6.30;3.90;;;;;;;;;;110160;1251;32479;-34
2022/09/09 01:47:17;;;;;;;5.70;3.90;;;;;;;;;;110172;1251;32989;-34
2022/09/09 01:49:48;;;;;;;6.30;3.50;;;;;;;;;;110145;1251;32314;-34
2022/09/09 01:52:18;;;;;;;5.70;3.60;;;;;;;;;;110212;1253;32799;-34
2022/09/09 01:54:49;;;;;;;6.40;3.60;;;;;;;;;;110225;1251;32802;-35
2022/09/09 01:57:28;;;;;;;6.20;3.90;;;;;;;;;;110230;1259;32540;-35
2022/09/09 02:00:07;;;;;;;6.50;3.80;;;;;;;;;;110162;1251;32432;-34
2022/09/09 02:02:44;;;;;;;5.90;3.90;;;;;;;;;;110178;1252;32938;-34
2022/09/09 02:05:25;;;;;;;7.20;4.10;;;;;;;;;;110189;1251;32626;-34
2022/09/09 02:08:01;;;;;;;7.50;4.40;;;;;;;;;;110169;1251;32722;-34
2022/09/09 02:10:38;;;;;;;6.30;3.50;;;;;;;;;;110154;1250;33378;-33
2022/09/09 02:13:13;;;;;;;6.90;3.90;;;;;;;;;;110219;1252;32120;-34
2022/09/09 02:15:51;;;;;;;6.00;3.80;;;;;;;;;;110266;1253;32539;-35
2022/09/09 02:18:27;;;;;;;6.50;3.90;;;;;;;;;;110237;1251;32532;-34
2022/09/09 02:21:00;;;;;;;6.30;4.10;;;;;;;;;;109835;1250;411256;-34
2022/09/09 02:23:31;;;;;;;6.90;4.00;;;;;;;;;;110165;1251;32194;-35
2022/09/09 02:26:03;;;;;;;7.40;3.90;;;;;;;;;;110154;1259;33051;-34
2022/09/09 02:28:35;;;;;;;7.10;4.00;;;;;;;;;;110175;1253;32435;-35
2022/09/09 02:31:09;;;;;;;6.80;4.00;;;;;;;;;;110170;1250;31808;-34
2022/09/09 02:33:45;;;;;;;5.50;3.90;;;;;;;;;;110261;1250;32300;-34
2022/09/09 02:36:18;;;;;;;6.40;4.00;;;;;;;;;;110245;1250;32483;-34
2022/09/09 02:38:52;;;;;;;6.80;4.50;;;;;;;;;;110256;1251;32581;-34
2022/09/09 02:41:26;;;;;;;6.80;4.30;;;;;;;;;;110159;1250;33612;-34
2022/09/09 02:44:01;;;;;;;6.20;4.10;;;;;;;;;;110160;1251;32672;-34
2022/09/09 02:46:43;;;;;;;7.00;4.30;;;;;;;;;;110156;1250;32545;-34
2022/09/09 02:49:19;;;;;;;6.90;4.30;;;;;;;;;;110183;1259;32942;-35
2022/09/09 02:51:56;;;;;;;7.70;4.40;;;;;;;;;;110193;1250;32969;-34
2022/09/09 02:54:31;;;;;;;7.00;4.30;;;;;;;;;;110227;1250;32481;-37
2022/09/09 02:57:07;;;;;;;6.80;4.20;;;;;;;;;;110284;1250;32829;-37
2022/09/09 02:59:39;;;;;;;6.30;4.00;;;;;;;;;;110248;1250;32972;-37
2022/09/09 03:02:11;;;;;;;7.20;4.40;;;;;;;;;;110142;1251;32572;-37
2022/09/09 03:04:44;;;;;;;7.40;4.30;;;;;;;;;;110165;1251;32925;-37
2022/09/09 03:07:15;;;;;;;6.60;4.20;;;;;;;;;;110162;1251;32772;-37
2022/09/09 03:09:49;;;;;;;6.20;4.10;;;;;;;;;;110171;1251;32890;-38
2022/09/09 03:12:20;;;;;;;7.40;4.50;;;;;;;;;;110210;1250;33052;-38
2022/09/09 03:14:51;;;;;;;6.30;4.00;;;;;;;;;;110267;1259;32479;-38
2022/09/09 03:17:22;;;;;;;6.20;4.30;;;;;;;;;;110222;1259;32425;-37
2022/09/09 03:19:54;;;;;;;6.60;4.10;;;;;;;;;;110216;1250;32505;-37
2022/09/09 03:22:25;;;;;;;6.70;4.20;;;;;;;;;;110179;1251;32568;-37
2022/09/09 03:24:55;;;;;;;7.30;4.30;;;;;;;;;;110172;1250;33304;-37
2022/09/09 03:27:26;;;;;;;6.70;4.10;;;;;;;;;;110156;1253;32667;-37
2022/09/09 03:29:57;;;;;;;6.90;4.00;;;;;;;;;;110157;1259;32897;-37
2022/09/09 03:32:31;;;;;;;6.10;4.10;;;;;;;;;;110172;1250;32464;-37
2022/09/09 03:35:01;;;;;;;6.90;4.10;;;;;;;;;;110253;1252;33310;-37
2022/09/09 03:37:32;;;;;;;7.00;4.20;;;;;;;;;;110236;1258;33755;-37
2022/09/09 03:40:03;;;;;;;6.20;4.10;;;;;;;;;;110236;1257;32785;-37
2022/09/09 03:42:36;;;;;;;5.70;3.90;;;;;;;;;;110170;1252;32995;-37
2022/09/09 03:45:11;;;;;;;6.80;4.30;;;;;;;;;;110130;1253;33945;-37
2022/09/09 03:47:42;;;;;;;6.50;4.10;;;;;;;;;;110154;1252;32553;-37
2022/09/09 03:50:13;;;;;;;6.70;4.20;;;;;;;;;;110158;1250;32470;-37
2022/09/09 03:52:46;;;;;;;5.70;3.90;;;;;;;;;;110191;1250;33055;-37
2022/09/09 03:55:17;;;;;;;6.60;4.10;;;;;;;;;;110267;1251;32109;-37
2022/09/09 03:57:48;;;;;;;7.00;4.70;;;;;;;;;;110267;1253;32582;-37
2022/09/09 04:00:18;;;;;;;6.30;4.40;;;;;;;;;;110254;1250;33190;-37
2022/09/09 04:02:49;;;;;;;6.90;4.00;;;;;;;;;;110188;1250;34277;-37
2022/09/09 04:05:20;;;;;;;6.80;4.40;;;;;;;;;;110154;1259;32642;-37
2022/09/09 04:07:51;;;;;;;6.80;4.40;;;;;;;;;;110145;1253;32535;-37
2022/09/09 04:10:22;;;;;;;6.20;4.00;;;;;;;;;;110159;1252;32653;-38
2022/09/09 04:12:52;;;;;;;6.40;4.10;;;;;;;;;;110152;1251;33001;-39
2022/09/09 04:15:23;;;;;;;6.00;4.20;;;;;;;;;;110234;1250;32594;-37
2022/09/09 04:17:53;;;;;;;6.30;3.80;;;;;;;;;;110212;1253;32847;-37
2022/09/09 04:20:24;;;;;;;6.80;4.20;;;;;;;;;;110268;1251;32840;-38
2022/09/09 04:22:55;;;;;;;6.80;4.10;;;;;;;;;;110183;1251;32194;-38
2022/09/09 04:25:26;;;;;;;6.60;3.90;;;;;;;;;;110183;1252;32936;-37
2022/09/09 04:27:59;;;;;;;6.80;4.10;;;;;;;;;;110175;1258;32098;-37
2022/09/09 04:30:30;;;;;;;6.30;4.20;;;;;;;;;;110149;1253;32128;-37
2022/09/09 04:33:01;;;;;;;7.50;4.10;;;;;;;;;;110171;1251;32572;-37
2022/09/09 04:35:32;;;;;;;6.80;4.00;;;;;;;;;;110241;1251;32414;-37
2022/09/09 04:38:04;;;;;;;7.50;4.00;;;;;;;;;;110225;1254;32509;-37
2022/09/09 04:40:36;;;;;;;6.70;4.10;;;;;;;;;;110254;1258;32751;-37
2022/09/09 04:43:06;;;;;;;6.50;4.10;;;;;;;;;;110133;1259;32514;-34
2022/09/09 04:45:39;;;;;;;6.70;3.90;;;;;;;;;;110132;1253;32418;-34
2022/09/09 04:48:10;;;;;;;6.30;3.60;;;;;;;;;;110185;1251;33070;-33
2022/09/09 04:50:41;;;;;;;6.90;4.20;;;;;;;;;;110146;1251;33119;-34
2022/09/09 04:53:11;;;;;;;6.20;3.80;;;;;;;;;;110166;1250;32444;-34
2022/09/09 04:55:42;;;;;;;6.10;4.00;;;;;;;;;;110261;1251;32962;-34
2022/09/09 04:58:13;;;;;;;7.00;4.00;;;;;;;;;;110272;1251;32943;-34
2022/09/09 05:00:44;;;;;;;7.00;4.00;;;;;;;;;;110245;1253;33275;-34
2022/09/09 05:03:14;;;;;;;6.20;3.90;;;;;;;;;;110208;1250;33148;-34
2022/09/09 05:05:45;;;;;;;6.10;3.70;;;;;;;;;;110090;1253;33684;-34
2022/09/09 05:08:16;;;;;;;7.90;4.10;;;;;;;;;;110164;1251;33091;-34
2022/09/09 05:10:50;;;;;;;6.00;4.00;;;;;;;;;;110098;1253;32515;-34
2022/09/09 05:13:22;;;;;;;6.00;3.90;;;;;;;;;;110151;1250;32751;-34
2022/09/09 05:15:55;;;;;;;7.70;4.30;;;;;;;;;;110257;1250;32728;-34
2022/09/09 05:18:26;;;;;;;7.20;4.10;;;;;;;;;;110288;1251;32446;-34
2022/09/09 05:21:02;;;;;;;6.60;3.70;;;;;;;;;;110234;1250;32545;-34
2022/09/09 05:23:33;;;;;;;6.90;4.00;;;;;;;;;;110187;1251;32857;-34
2022/09/09 05:26:05;;;;;;;6.70;4.00;;;;;;;;;;110139;1251;32868;-34
2022/09/09 05:28:36;;;;;;;6.60;3.90;;;;;;;;;;110186;1259;33008;-34
2022/09/09 05:31:08;;;;;;;6.50;3.80;;;;;;;;;;110163;1252;33546;-34
2022/09/09 05:33:41;;;;;;;6.00;3.70;;;;;;;;;;110099;1251;32905;-34
2022/09/09 05:36:14;;;;;;;6.20;3.60;;;;;;;;;;110255;1251;32079;-34
2022/09/09 05:38:46;;;;;;;6.60;3.40;;;;;;;;;;110256;1253;32007;-34
2022/09/09 05:41:19;;;;;;;7.40;4.10;;;;;;;;;;110242;1250;33002;-34
2022/09/09 05:43:50;;;;;;;6.00;3.50;;;;;;;;;;110247;1250;32751;-34
2022/09/09 05:46:23;;;;;;;7.40;3.60;;;;;;;;;;110163;1253;34423;-34
2022/09/09 05:48:54;;;;;;;7.50;3.60;;;;;;;;;;110171;1259;32652;-34
2022/09/09 05:51:29;;;;;;;6.10;3.60;;;;;;;;;;110164;1252;33441;-34
2022/09/09 05:53:59;;;;;;;6.60;3.30;;;;;;;;;;110172;1251;32911;-34
2022/09/09 05:56:32;;;;;;;6.10;3.40;;;;;;;;;;110251;1250;32429;-34
2022/09/09 05:59:04;;;;;;;5.60;3.30;;;;;;;;;;110251;1258;32639;-34
2022/09/09 06:01:40;;;;;;;6.20;3.40;;;;;;;;;;110233;1250;32621;-35
2022/09/09 06:04:12;;;;;;;6.50;3.50;;;;;;;;;;110204;1251;32868;-35
2022/09/09 06:06:43;;;;;;;6.10;3.40;;;;;;;;;;110187;1252;33244;-34
2022/09/09 06:09:15;;;;;;;5.10;3.00;;;;;;;;;;110163;1259;32541;-36
2022/09/09 06:11:46;;;;;;;8.30;3.50;;;;;;;;;;110142;1253;32504;-38
2022/09/09 06:14:17;;;;;;;6.20;3.70;;;;;;;;;;110112;1259;33203;-38
2022/09/09 06:16:48;;;;;;;5.90;3.80;;;;;;;;;;110214;1250;32453;-38
2022/09/09 06:19:21;;;;;;;6.10;3.40;;;;;;;;;;110234;1250;32414;-38
2022/09/09 06:21:52;;;;;;;7.40;3.70;;;;;;;;;;110230;1250;32491;-38
2022/09/09 06:24:22;;;;;;;6.40;3.50;;;;;;;;;;110183;1251;32197;-38
2022/09/09 06:26:53;;;;;;;9.00;4.00;;;;;;;;;;110166;1252;32620;-38
2022/09/09 06:29:25;;;;;;;9.30;3.90;;;;;;;;;;110069;1252;32598;-36
2022/09/09 06:31:58;;;;;;;6.50;3.60;;;;;;;;;;110190;1250;32508;-34
2022/09/09 06:34:30;;;;;;;6.00;3.50;;;;;;;;;;110180;1249;32067;-39
2022/09/09 06:37:02;;;;;;;7.40;3.60;;;;;;;;;;110277;1250;38989;-38
2022/09/09 06:39:33;;;;;;;7.70;3.70;;;;;;;;;;110289;1250;32907;-36
2022/09/09 06:42:04;;;;;;;7.00;3.60;;;;;;;;;;110320;1250;32450;-34
2022/09/09 06:44:35;;;;;;;5.90;3.50;;;;;;;;;;110301;1251;32985;-34
2022/09/09 06:47:06;;;;;;;5.90;3.30;;;;;;;;;;110185;1250;38806;-36
2022/09/09 06:49:37;;;;;;;7.10;3.50;;;;;;;;;;110135;1257;32705;-36
2022/09/09 06:52:10;;;;;;;7.70;3.30;;;;;;;;;;110270;1250;32931;-35
2022/09/09 06:54:41;;;;;;;5.90;3.50;;;;;;;;;;110204;1251;32745;-35
2022/09/09 06:57:12;;;;;;;9.00;4.30;;;;;;;;;;110252;1251;32943;-36
2022/09/09 06:59:43;;;;;;;6.80;4.20;;;;;;;;;;108917;1250;1180373;-36
2022/09/09 07:03:14;;;;;;;12.10;4.40;;;;;;;;;;106730;1288;568581;-37
2022/09/09 07:05:54;;;;;;;11.10;4.10;;;;;;;;;;109299;1260;36942;-37
2022/09/09 07:08:25;;;;;;;9.00;3.50;;;;;;;;;;109202;1260;36566;-37
2022/09/09 07:11:02;;;;;;;8.90;3.70;;;;;;;;;;109358;1259;34056;-37
2022/09/09 07:13:35;;;;;;;10.70;4.10;;;;;;;;;;109354;1259;35264;-36
2022/09/09 07:16:09;;;;;;;8.40;4.00;;;;;;;;;;109791;1250;431999;-36
2022/09/09 07:18:39;;;;;;;8.10;4.00;;;;;;;;;;110280;1249;36588;-37
2022/09/09 07:21:15;;;;;;;7.30;4.00;;;;;;;;;;110274;1250;36405;-36
2022/09/09 07:23:46;;;;;;;9.00;4.40;;;;;;;;;;110044;1250;36015;-38
2022/09/09 07:26:19;;;;;;;10.20;3.90;;;;;;;;;;110061;1251;36556;-40
2022/09/09 07:28:50;;;;;;;7.70;3.30;;;;;;;;;;110052;1252;36617;-36
2022/09/09 07:31:26;;;;;;;8.80;4.10;;;;;;;;;;110056;1252;36710;-37
2022/09/09 07:33:59;;;;;;;8.60;4.20;;;;;;;;;;110149;1250;33329;-38
2022/09/09 07:36:32;;;;;;;7.70;4.10;;;;;;;;;;110203;1251;36578;-36
2022/09/09 07:39:07;;;;;;;11.40;5.00;;;;;;;;;;110185;1250;37509;-37
2022/09/09 07:41:39;;;;;;;8.10;4.20;;;;;;;;;;110210;1251;34938;-36
2022/09/09 07:44:12;;;;;;;9.60;4.20;;;;;;;;;;110158;1251;34615;-36
2022/09/09 07:46:44;;;;;;;7.80;4.00;;;;;;;;;;110182;1251;34721;-36
2022/09/09 07:49:16;;;;;;;6.40;4.00;;;;;;;;;;110192;1251;36569;-36
2022/09/09 07:51:49;;;;;;;8.50;3.70;;;;;;;;;;110173;1251;36722;-36
2022/09/09 07:54:23;;;;;;;7.60;3.50;;;;;;;;;;110094;1251;34758;-36
2022/09/09 07:56:56;;;;;;;8.40;3.90;;;;;;;;;;110059;1252;36508;-36
2022/09/09 07:59:30;;;;;;;7.40;4.00;;;;;;;;;;110049;1252;35956;-35
2022/09/09 08:02:01;;;;;;;8.70;3.70;;;;;;;;;;110018;1252;35489;-36
2022/09/09 08:04:34;;;;;;;8.20;4.00;;;;;;;;;;110151;1250;36638;-36
2022/09/09 08:07:07;;;;;;;6.80;3.90;;;;;;;;;;109912;1250;36631;-36
2022/09/09 08:09:41;;;;;;;7.70;3.60;;;;;;;;;;109671;1256;36425;-36
2022/09/09 08:12:14;;;;;;;8.20;4.10;;;;;;;;;;109716;1256;36354;-35
2022/09/09 08:14:45;;;;;;;6.40;3.60;;;;;;;;;;109674;1256;36574;-35
2022/09/09 08:17:15;;;;;;;8.60;3.80;;;;;;;;;;109719;1256;35852;-35
2022/09/09 08:19:46;;;;;;;6.50;3.80;;;;;;;;;;109743;1256;36159;-35
2022/09/09 08:22:16;;;;;;;6.80;4.30;;;;;;;;;;109710;1256;35512;-35
2022/09/09 08:24:47;;;;;;;7.00;3.80;;;;;;;;;;109686;1256;34511;-36
2022/09/09 08:27:17;;;;;;;6.90;4.10;;;;;;;;;;109721;1256;36267;-36
2022/09/09 08:29:48;;;;;;;6.70;3.70;;;;;;;;;;109695;1256;35035;-36
2022/09/09 08:32:19;;;;;;;7.60;4.10;;;;;;;;;;109703;1256;33825;-36
2022/09/09 08:34:51;;;;;;;6.50;3.90;;;;;;;;;;109726;1256;35727;-36
2022/09/09 08:37:22;;;;;;;7.90;3.80;;;;;;;;;;109707;1256;35891;-36
2022/09/09 08:39:59;;;;;;;6.70;3.70;;;;;;;;;;109730;1256;36272;-36
2022/09/09 08:42:42;;;;;;;6.50;3.70;;;;;;;;;;109707;1256;35771;-36
2022/09/09 08:45:29;;;;;;;7.50;4.10;;;;;;;;;;109679;1256;34045;-36
2022/09/09 08:48:29;;;;;;;6.90;3.80;;;;;;;;;;109703;1256;34892;-36
2022/09/09 08:51:07;;;;;;;6.70;3.80;;;;;;;;;;109700;1256;36333;-36
2022/09/09 08:53:43;;;;;;;7.00;4.20;;;;;;;;;;109697;1256;36377;-36
2022/09/09 08:56:18;;;;;;;7.00;3.70;;;;;;;;;;110197;1251;36563;-36
2022/09/09 08:58:51;;;;;;;7.30;4.70;;;;;;;;;;110033;1251;36138;-36
2022/09/09 09:01:40;;;;;;;9.00;4.20;;;;;;;;;;110028;1251;34339;-36
2022/09/09 09:04:27;;;;;;;6.30;3.90;;;;;;;;;;110041;1251;34552;-36
2022/09/09 09:07:13;;;;;;;7.00;4.00;;;;;;;;;;110047;1252;41710;-36
2022/09/09 09:09:53;;;;;;;6.30;3.80;;;;;;;;;;110056;1253;34435;-36
2022/09/09 09:12:28;;;;;;;6.70;3.90;;;;;;;;;;110056;1253;35768;-36
2022/09/09 09:15:01;;;;;;;5.50;3.80;;;;;;;;;;110052;1251;36110;-36
2022/09/09 09:17:37;;;;;;;6.00;4.60;;;;;;;;;;110046;1251;36237;-36
2022/09/09 09:20:15;;;;;;;6.70;4.20;;;;;;;;;;110064;1251;35219;-36
2022/09/09 09:22:51;;;;;;;7.60;4.10;;;;;;;;;;110077;1251;34906;-36
2022/09/09 09:25:28;;;;;;;7.00;4.20;;;;;;;;;;110028;1252;35863;-40
2022/09/09 09:28:17;;;;;;;6.70;3.80;;;;;;;;;;110062;1253;37299;-40
2022/09/09 09:30:55;;;;;;;6.80;4.30;;;;;;;;;;110077;1252;34524;-40
2022/09/09 09:33:29;;;;;;;6.00;3.90;;;;;;;;;;110070;1253;36674;-41
2022/09/09 09:36:08;;;;;;;7.20;4.40;;;;;;;;;;110027;1250;35949;-40
2022/09/09 09:38:52;;;;;;;6.90;4.20;;;;;;;;;;110081;1251;36089;-40
2022/09/09 09:41:35;;;;;;;6.50;4.30;;;;;;;;;;110091;1252;36250;-40
2022/09/09 09:44:07;;;;;;;6.90;4.40;;;;;;;;;;110093;1251;35914;-40
2022/09/09 09:46:38;;;;;;;6.10;4.20;;;;;;;;;;110043;1252;36323;-40
2022/09/09 09:49:13;;;;;;;6.20;4.10;;;;;;;;;;110076;1252;35900;-40
2022/09/09 09:51:44;;;;;;;6.30;4.50;;;;;;;;;;110047;1252;34658;-40
2022/09/09 09:54:24;;;;;;;5.90;4.30;;;;;;;;;;110041;1252;36176;-40
2022/09/09 09:56:55;;;;;;;6.70;4.20;;;;;;;;;;110056;1251;35931;-40
2022/09/09 09:59:36;;;;;;;5.70;4.00;;;;;;;;;;110115;1252;36597;-40
2022/09/09 10:02:17;;;;;;;6.20;4.20;;;;;;;;;;110080;1252;35760;-40
2022/09/09 10:05:01;;;;;;;6.20;3.90;;;;;;;;;;110088;1252;36594;-37
2022/09/09 10:07:30;;;;;;;;;;;;;;;;;;110040;1251;35977;-36
2022/09/09 10:10:01;;;;;;;7.20;4.30;;;;;;;;;;110103;1253;32825;-36
2022/09/09 10:12:45;;;;;;;6.60;4.70;;;;;;;;;;110062;1252;36422;-36
2022/09/09 10:15:31;;;;;;;7.90;4.20;;;;;;;;;;110042;1253;34443;-36
2022/09/09 10:18:12;;;;;;;6.40;4.50;;;;;;;;;;110046;1250;39702;-36
2022/09/09 10:20:53;;;;;;;7.70;4.70;;;;;;;;;;110048;1252;35821;-36
2022/09/09 10:23:43;;;;;;;7.00;4.70;;;;;;;;;;110074;1251;35857;-36
2022/09/09 10:26:27;;;;;;;7.00;4.60;;;;;;;;;;110034;1252;35873;-36
2022/09/09 10:29:16;;;;;;;6.20;4.80;;;;;;;;;;110062;1252;36719;-36
2022/09/09 10:32:02;;;;;;;6.60;4.40;;;;;;;;;;110045;1252;35935;-36
2022/09/09 10:34:54;;;;;;;6.90;4.80;;;;;;;;;;110080;1253;36022;-36
2022/09/09 10:37:36;;;;;;;6.50;4.80;;;;;;;;;;110044;1250;36136;-36
2022/09/09 10:40:26;;;;;;;6.50;4.90;;;;;;;;;;110065;1252;36255;-36
2022/09/09 10:43:06;;;;;;;5.80;4.20;;;;;;;;;;110095;1252;35934;-36
2022/09/09 10:45:45;;;;;;;6.90;4.80;;;;;;;;;;110074;1251;36386;-36
2022/09/09 10:48:30;;;;;;;6.30;4.70;;;;;;;;;;110025;1252;35754;-36
2022/09/09 10:51:19;;;;;;;7.50;4.80;;;;;;;;;;110043;1253;35970;-36
2022/09/09 10:54:03;;;;;;;6.10;4.90;;;;;;;;;;110075;1252;34341;-36
2022/09/09 10:56:34;;;;;;;;;;;;;;;;;;110084;1252;36586;-36
2022/09/09 10:59:09;;;;;;;6.80;4.70;;;;;;;;;;110065;1251;35875;-36
2022/09/09 11:01:44;;;;;;;7.00;4.90;;;;;;;;;;110058;1251;34374;-36
2022/09/09 11:04:20;;;;;;;6.60;5.20;;;;;;;;;;110108;1251;35840;-36
2022/09/09 11:06:55;;;;;;;7.50;5.10;;;;;;;;;;110051;1251;35149;-36
2022/09/09 11:09:29;;;;;;;6.90;4.80;;;;;;;;;;110064;1252;39557;-36
2022/09/09 11:12:03;;;;;;;6.80;5.20;;;;;;;;;;110058;1252;37896;-36
2022/09/09 11:14:40;;;;;;;7.50;4.90;;;;;;;;;;110089;1253;35788;-36
2022/09/09 11:17:17;;;;;;;6.30;4.80;;;;;;;;;;110087;1253;35903;-42
2022/09/09 11:19:49;;;;;;;7.10;4.80;;;;;;;;;;110087;1251;43191;-41
2022/09/09 11:22:29;;;;;;;7.60;5.80;;;;;;;;;;110069;1252;33258;-36
2022/09/09 11:25:04;;;;;;;7.10;5.40;;;;;;;;;;110075;1251;37868;-36
2022/09/09 11:27:44;;;;;;;7.90;5.30;;;;;;;;;;109986;1252;36118;-37
2022/09/09 11:30:28;;;;;;;6.70;5.00;;;;;;;;;;110063;1253;35952;-37
2022/09/09 11:33:25;;;;;;;7.30;5.20;;;;;;;;;;110105;1252;36565;-36
2022/09/09 11:36:09;;;;;;;8.10;5.20;;;;;;;;;;110043;1252;36324;-41
2022/09/09 11:38:46;;;;;;;6.40;4.90;;;;;;;;;;110009;1252;35963;-40
2022/09/09 11:41:18;;;;;;;6.90;5.20;;;;;;;;;;110071;1252;35961;-40
2022/09/09 11:43:51;;;;;;;6.90;5.40;;;;;;;;;;110071;1252;36221;-40
2022/09/09 11:46:35;;;;;;;7.40;5.40;;;;;;;;;;110095;1252;36421;-40
2022/09/09 11:49:06;;;;;;;;;;;;;;;;;;110010;1252;35902;-40
2022/09/09 11:51:37;;;;;;;8.10;6.10;;;;;;;;;;109946;1252;35709;-40
2022/09/09 11:54:29;;;;;;;8.30;5.70;;;;;;;;;;109884;1253;37801;-41
2022/09/09 11:57:00;;;;;;;7.80;6.00;;;;;;;;;;109979;1253;36462;-42
2022/09/09 11:59:33;;;;;;;8.00;6.10;;;;;;;;;;109994;1251;36135;-42
2022/09/09 12:02:13;;;;;;;8.60;5.70;;;;;;;;;;110026;1251;36061;-42
2022/09/09 12:04:50;;;;;;;8.00;5.90;;;;;;;;;;110220;1251;36654;-41
2022/09/09 12:07:38;;;;;;;7.40;5.70;;;;;;;;;;110013;1252;34772;-39
2022/09/09 12:10:27;;;;;;;9.80;6.10;;;;;;;;;;109977;1253;34833;-37
2022/09/09 12:13:15;;;;;;;8.60;5.70;;;;;;;;;;110021;1252;35559;-37
2022/09/09 12:15:53;;;;;;;8.20;5.50;;;;;;;;;;109992;1253;36255;-40
2022/09/09 12:18:33;;;;;;;7.90;6.10;;;;;;;;;;110021;1253;36643;-37
2022/09/09 12:21:16;;;;;;;8.60;6.20;;;;;;;;;;110129;1251;35703;-37
2022/09/09 12:23:52;;;;;;;8.10;6.00;;;;;;;;;;110001;1252;36578;-38
2022/09/09 12:26:34;;;;;;;8.20;6.20;;;;;;;;;;110019;1252;36123;-39
2022/09/09 12:29:19;;;;;;;9.10;6.40;;;;;;;;;;109966;1252;34580;-34
2022/09/09 12:31:57;;;;;;;7.30;5.60;;;;;;;;;;109902;1253;36228;-34
2022/09/09 12:34:37;;;;;;;8.80;6.40;;;;;;;;;;110021;1253;34681;-34
2022/09/09 12:37:15;;;;;;;9.30;6.10;;;;;;;;;;110000;1253;36454;-34
2022/09/09 12:39:50;;;;;;;8.90;6.20;;;;;;;;;;109958;1252;36106;-34
2022/09/09 12:42:23;;;;;;;7.50;6.20;;;;;;;;;;110031;1251;35151;-34
2022/09/09 12:44:58;;;;;;;7.30;6.00;;;;;;;;;;110030;1252;35239;-34
2022/09/09 12:47:40;;;;;;;8.00;6.40;;;;;;;;;;109964;1252;36145;-34
2022/09/09 12:50:22;;;;;;;7.90;6.50;;;;;;;;;;109965;1252;37640;-34
2022/09/09 12:52:55;;;;;;;9.60;7.10;;;;;;;;;;110008;1252;36103;-34
2022/09/09 12:55:29;;;;;;;8.40;6.90;;;;;;;;;;109990;1253;34862;-33
2022/09/09 12:58:04;;;;;;;8.60;6.10;;;;;;;;;;109988;1253;34863;-33
2022/09/09 13:00:37;;;;;;;8.70;6.80;;;;;;;;;;109978;1252;36080;-33
2022/09/09 13:03:21;;;;;;;8.00;6.40;;;;;;;;;;109995;1252;36063;-33
2022/09/09 13:05:53;;;;;;;8.40;6.50;;;;;;;;;;110044;1252;33388;-33
2022/09/09 13:08:24;;;;;;;8.00;6.50;;;;;;;;;;110000;1252;33910;-33
2022/09/09 13:11:00;;;;;;;8.60;6.90;;;;;;;;;;109979;1252;34685;-33
2022/09/09 13:13:36;;;;;;;7.80;6.50;;;;;;;;;;109993;1253;36109;-33
2022/09/09 13:16:18;;;;;;;8.50;6.60;;;;;;;;;;110006;1253;36531;-33
2022/09/09 13:18:55;;;;;;;9.10;6.60;;;;;;;;;;109930;1253;36296;-33
2022/09/09 13:21:37;;;;;;;8.60;7.10;;;;;;;;;;110021;1252;33679;-33
2022/09/09 13:24:29;;;;;;;8.80;7.40;;;;;;;;;;110017;1252;36140;-33
2022/09/09 13:27:03;;;;;;;9.60;7.00;;;;;;;;;;110019;1252;36011;-33
2022/09/09 13:29:34;;;;;;;10.20;6.60;;;;;;;;;;110010;1252;36186;-33
2022/09/09 13:32:18;;;;;;;11.80;7.50;;;;;;;;;;109996;1252;36539;-34
2022/09/09 13:34:54;;;;;;;7.50;6.50;;;;;;;;;;110005;1253;38029;-36
2022/09/09 13:37:31;;;;;;;9.20;7.20;;;;;;;;;;110017;1253;36210;-35
2022/09/09 13:40:07;;;;;;;9.20;6.40;;;;;;;;;;110003;1253;34790;-35
2022/09/09 13:42:43;;;;;;;9.10;7.10;;;;;;;;;;110017;1252;36056;-34
2022/09/09 13:45:21;;;;;;;9.30;7.30;;;;;;;;;;109991;1253;36578;-34
2022/09/09 13:47:55;;;;;;;10.10;7.50;;;;;;;;;;110038;1251;33773;-35
2022/09/09 13:50:30;;;;;;;10.10;7.50;;;;;;;;;;110007;1253;36283;-34
2022/09/09 13:53:01;;;;;;;8.80;7.20;;;;;;;;;;109966;1253;36159;-33
2022/09/09 13:55:32;;;;;;;8.70;7.70;;;;;;;;;;110050;1253;36087;-33
2022/09/09 13:58:05;;;;;;;10.90;8.30;;;;;;;;;;110020;1253;36727;-35
2022/09/09 14:00:36;;;;;;;11.60;8.30;;;;;;;;;;110034;1253;35237;-34
2022/09/09 14:03:09;;;;;;;11.40;7.90;;;;;;;;;;109932;1252;36539;-34
2022/09/09 14:05:39;;;;;;;;;;;;;;;;;;109981;1252;36116;-34
2022/09/09 14:08:15;;;;;;;10.50;8.70;;;;;;;;;;110017;1252;36016;-34
2022/09/09 14:10:52;;;;;;;11.70;8.50;;;;;;;;;;110013;1252;36541;-34
2022/09/09 14:13:22;;;;;;;10.80;8.90;;;;;;;;;;109914;1253;38775;-35
2022/09/09 14:15:57;;;;;;;11.00;8.60;;;;;;;;;;109977;1253;36970;-34
2022/09/09 14:18:27;;;;;;;10.90;7.90;;;;;;;;;;110027;1253;36633;-34
2022/09/09 14:20:58;;;;;;;11.60;8.60;;;;;;;;;;109984;1253;35204;-34
2022/09/09 14:23:30;;;;;;;11.60;9.00;;;;;;;;;;110051;1252;36481;-34
2022/09/09 14:26:00;;;;;;;11.70;9.20;;;;;;;;;;110051;1252;35101;-34
2022/09/09 14:28:31;;;;;;;12.30;9.60;;;;;;;;;;110053;1253;36691;-34
2022/09/09 14:31:03;;;;;;;11.80;9.40;;;;;;;;;;110072;1251;35828;-34
2022/09/09 14:33:34;;;;;;;10.80;9.00;;;;;;;;;;110007;1252;36223;-34
2022/09/09 14:36:06;;;;;;;11.10;9.10;;;;;;;;;;110065;1251;36521;-34
2022/09/09 14:38:41;;;;;;;12.00;9.60;;;;;;;;;;110074;1252;36348;-34
2022/09/09 14:41:16;;;;;;;12.40;9.30;;;;;;;;;;110044;1252;35735;-34
2022/09/09 14:43:47;;;;;;;11.20;9.30;;;;;;;;;;109977;1252;36137;-34
2022/09/09 14:46:21;;;;;;;12.20;9.20;;;;;;;;;;110047;1253;36979;-34
2022/09/09 14:48:52;;;;;;;12.10;9.30;;;;;;;;;;109988;1253;37909;-34
2022/09/09 14:51:25;;;;;;;12.60;9.50;;;;;;;;;;110018;1253;36298;-34
2022/09/09 14:53:57;;;;;;;10.80;9.20;;;;;;;;;;110074;1252;36538;-34
2022/09/09 14:56:30;;;;;;;12.70;9.40;;;;;;;;;;110070;1252;36466;-34
2022/09/09 14:59:02;;;;;;;12.70;9.20;;;;;;;;;;110056;1252;34609;-34
2022/09/09 15:01:34;;;;;;;13.00;9.00;;;;;;;;;;110095;1252;36524;-34
2022/09/09 15:04:06;;;;;;;11.40;9.00;;;;;;;;;;109962;1253;36562;-34
2022/09/09 15:06:46;;;;;;;11.80;9.20;;;;;;;;;;109988;1253;37280;-34
2022/09/09 15:09:19;;;;;;;12.40;9.10;;;;;;;;;;110020;1252;38083;-34
2022/09/09 15:11:52;;;;;;;11.70;8.90;;;;;;;;;;109981;1253;36043;-34
2022/09/09 15:14:22;;;;;;;14.30;9.80;;;;;;;;;;110063;1253;36514;-34
2022/09/09 15:16:52;;;;;;;13.00;9.20;;;;;;;;;;109788;1252;441586;-34